Tiempo atmosférico en la estación meteorológica de Barbate, Cádiz (4 m.)



Fecha
DESCASC
Temp. máxima en grados centígrados (hora)
DESCASC
Temp. mínima en grados centígrados (hora)
DESCASC
Temp. media en grados centígrados
DESCASC
Racha de viento máxima en m/sg (hora)
DESCASC
Velocidad máxima media en intervalos de 10 minutos(hora)
DESCASC
Precipitaciones diarias en mm
DESCASC
Precipitaciones de 00:00 a 06:00 en mm
DESCASC
Precipitaciones de 06:00 a 12:00 en mm
DESCASC
Precipitaciones de 12:00 a 18:00 en mm
DESCASC
Precipitaciones de 18:00 a 24:00 en mm
DESCASC
20-09-2018 30.7 (17:50) 23.4 (04:10) 27.1 13.89 (02:10) 8.89 (14:40) 0 0 0 0 0
19-09-2018 29.2 (16:30) 20 (06:40) 24.6 8.33 (19:00) 6.39 (19:00) 0 0 0 0 0
18-09-2018 26.2 (14:50) 21 (08:30) 23.6 7.22 (16:40) 6.11 (16:50) 0 0 0 0 0
17-09-2018 31 (16:40) 24.2 (06:20) 27.6 15 (05:20) 10.56 (05:30) 0 0 0 0 0
16-09-2018 30.7 (16:50) 22.4 (00:00) 26.6 13.89 (16:10) 9.17 (15:50) 0 0 0 0 0
15-09-2018 27.3 (12:00) 19.8 (00:00) 23.5 6.39 (00:20) 4.72 (03:40) 0 0 0 0 0
14-09-2018 27 (16:50) 21.3 (00:00) 24.1 10.83 (22:40) 5.56 (23:10) 1.2 1 0.2 0 0
13-09-2018 27.2 (16:20) 20.8 (00:00) 24 6.11 (18:40) 5 (18:50) 0 0 0 0 0
12-09-2018 27.3 (17:30) 22.6 (00:00) 24.9 17.5 (01:30) 11.11 (01:00) 0 0 0 0 0
11-09-2018 30.5 (15:50) 24.3 (00:00) 27.4 20 (12:20) 12.22 (13:10) 0 0 0 0 0
10-09-2018 31.4 (14:20) 19.9 (00:00) 25.6 13.33 (16:50) 9.17 (18:20) 0 0 0 0 0
09-09-2018 25.8 (15:40) 19.8 (00:00) 22.8 8.61 (15:50) 6.67 (14:50) 0 0 0 0 0
08-09-2018 26.5 (18:10) 18.9 (00:00) 22.7 8.06 (15:00) 6.39 (15:00) 0 0 0 0 0
07-09-2018 26.5 (17:50) 18 (00:00) 22.3 9.17 (14:30) 7.78 (14:30) 0 0 0 0 0
06-09-2018 24.9 (15:00) 18.5 (00:00) 21.7 7.78 (17:10) 6.67 (17:10) 0 0 0 0 0
05-09-2018 25.9 (16:40) 18.1 (00:00) 22 8.33 (11:20) 6.94 (11:50) 0 0 0 0 0
04-09-2018 25.9 (13:50) 19.1 (00:00) 22.5 8.89 (15:30) 7.22 (16:00) 0 0 0 0 0
03-09-2018 -- (--) -- (--) -- -- (--) -- (--) -- 0 -- -- 0
02-09-2018 34.8 (16:20) 22.5 (00:00) 28.6 15.56 (10:00) 11.11 (22:00) 0 0 0 0 0
01-09-2018 31.2 (17:00) 24.9 (00:00) 28.1 18.89 (15:30) 12.5 (10:30) 0 0 0 0 0
31-08-2018 30.8 (15:10) 24.8 (00:00) 27.8 17.22 (16:10) 11.11 (16:30) 0 0 0 0 0
30-08-2018 31.8 (17:50) 20.5 (00:00) 26.1 10.83 (17:30) 7.5 (17:30) 0 0 0 0 0
29-08-2018 26.8 (18:30) 21.5 (00:00) 24.1 9.17 (17:50) 7.5 (17:40) 0 0 0 0 0
28-08-2018 27.7 (15:30) 21.7 (00:00) 24.7 9.17 (00:30) 7.78 (00:30) 0 0 0 0 0
27-08-2018 32.9 (15:20) 23.5 (00:00) 28.2 20.28 (13:00) 12.5 (13:00) 0 0 0 0 0
26-08-2018 35.1 (16:30) 21 (00:00) 28 11.67 (23:59) 7.78 (23:59) 0 0 0 0 0
25-08-2018 27.5 (18:10) 20.4 (00:00) 23.9 7.5 (12:00) 6.39 (12:10) 0 0 0 0 0

Gráficas

Temp. máximas Temp. mínimas Temp. medias Precipitaciones Rachas de viento máximas Velocidades máximas media en intervalos de 10 minutos

Datos horarios

Fecha y hora oficial Temperatura (ºC) Velocidad del viento (km/h) Dirección del viento Racha (km/h) Dirección de racha Precipitación (mm) Presión (hPa) Tendencia (hPa) Humedad (%)
2018-09-23 23:00:00 24.5 20 Norte 28 Nordeste 0 -- -- 72
2018-09-23 22:00:00 25 10 Norte 22 Norte 0 -- -- 70
2018-09-23 21:00:00 25.8 3 Sudeste 23 Nordeste 0 -- -- 65
2018-09-23 20:00:00 27.7 19 Nordeste 28 Este 0 -- -- 55
2018-09-23 19:00:00 30 24 Este 45 Nordeste 0 -- -- 48
2018-09-23 18:00:00 31.2 29 Este 48 Este 0 -- -- 43
2018-09-23 17:00:00 31.5 35 Este 48 Este 0 -- -- 43
2018-09-23 16:00:00 31.7 34 Este 51 Este 0 -- -- 42
2018-09-23 15:00:00 32.1 25 Este 38 Este 0 -- -- 45
2018-09-23 14:00:00 31.9 21 Este 36 Este 0 -- -- 45
2018-09-23 13:00:00 30.7 23 Este 41 Este 0 -- -- 49
2018-09-23 12:00:00 29.2 26 Este 44 Este 0 -- -- 53
2018-09-23 11:00:00 27.7 24 Este 37 Este 0 -- -- 59
2018-09-23 10:00:00 25.4 13 Nordeste 26 Este 0 -- -- 66
2018-09-23 09:00:00 23.7 15 Nordeste 39 Nordeste 0 -- -- 68
2018-09-23 08:00:00 23.8 23 Nordeste 33 Nordeste 0 -- -- 67
2018-09-23 07:00:00 24 15 Norte 33 Norte 0 -- -- 67
2018-09-23 06:00:00 24.2 18 Norte 30 Norte 0 -- -- 67
2018-09-23 05:00:00 24.3 17 Norte 32 Norte 0 -- -- 67
2018-09-23 04:00:00 23.2 14 Nordeste 27 Nordeste 0 -- -- 75
2018-09-23 03:00:00 23.2 13 Norte 27 Norte 0 -- -- 75
2018-09-23 02:00:00 23.3 9 Nordeste 21 Norte 0 -- -- 75
2018-09-23 01:00:00 22.9 11 Nordeste 22 Nordeste 0 -- -- 76
2018-09-23 00:00:00 23.8 10 Nordeste 40 Este 0 -- -- 71
2018-09-22 23:00:00 24.1 17 Nordeste 33 Este 0 -- -- 65
2018-09-22 22:00:00 24.5 12 Nordeste 26 Este 0 -- -- 56
2018-09-22 21:00:00 24.9 6 Nordeste 23 Nordeste 0 -- -- 58
2018-09-22 20:00:00 27.3 15 Nordeste 35 Este 0 -- -- 50
2018-09-22 19:00:00 29.7 20 Este 42 Este 0 -- -- 42
2018-09-22 18:00:00 30.8 21 Este 47 Este 0 -- -- 40
2018-09-22 17:00:00 31.1 33 Este 54 Este 0 -- -- 38
2018-09-22 16:00:00 31.2 32 Este 54 Este 0 -- -- 41
2018-09-22 15:00:00 31.6 30 Este 48 Este 0 -- -- 41
2018-09-22 14:00:00 31.6 26 Este 46 Este 0 -- -- 43
2018-09-22 13:00:00 30.1 15 Nordeste 28 Este 0 -- -- 50
2018-09-22 12:00:00 28 22 Nordeste 36 Nordeste 0 -- -- 60
2018-09-22 11:00:00 25.7 25 Nordeste 36 Norte 0 -- -- 70
2018-09-22 10:00:00 24.3 15 Nordeste 24 Nordeste 0 -- -- 75
2018-09-22 09:00:00 22.4 11 Norte 22 Norte 0 -- -- 81
2018-09-22 08:00:00 22.4 12 Norte 25 Nordeste 0 -- -- 75
2018-09-22 07:00:00 23.4 17 Nordeste 29 Nordeste 0 -- -- 67
2018-09-22 06:00:00 23.5 17 Nordeste 37 Nordeste 0 -- -- 68
2018-09-22 05:00:00 22.8 26 Nordeste 39 Nordeste 0 -- -- 75
2018-09-22 04:00:00 22.6 23 Nordeste 29 Nordeste 0 -- -- 74
2018-09-22 03:00:00 22.9 19 Nordeste 32 Este 0 -- -- 78
2018-09-22 02:00:00 23.1 23 Este 30 Este 0 -- -- 77
2018-09-22 01:00:00 24.3 24 Nordeste 34 Este 0 -- -- 62
2018-09-22 00:00:00 23.7 21 Nordeste 27 Nordeste 0 -- -- 71
2018-09-21 23:00:00 24.3 14 Nordeste 31 Este 0 -- -- 69
2018-09-21 22:00:00 25 8 Este 21 Este 0 -- -- 58
2018-09-21 21:00:00 25.2 2 Norte 15 Oeste 0 -- -- 76
2018-09-21 20:00:00 26.7 6 Oeste 13 Sudoeste 0 -- -- 74
2018-09-21 19:00:00 28.1 9 Sudoeste 14 Sudoeste 0 -- -- 74
2018-09-21 18:00:00 29.4 10 Sudoeste 15 Sur 0 -- -- 71
2018-09-21 17:00:00 29 13 Sur 24 Sur 0 -- -- 71
2018-09-21 16:00:00 28.3 17 Sur 26 Sur 0 -- -- 73
2018-09-21 15:00:00 28.4 15 Sur 25 Sur 0 -- -- 72
2018-09-21 14:00:00 28.5 14 Sur 21 Sur 0 -- -- 74
2018-09-21 13:00:00 28.2 13 Sur 17 Sur 0 -- -- 74
2018-09-21 12:00:00 26.8 12 Oeste 13 Sudoeste 0 -- -- 76
2018-09-21 11:00:00 26.3 4 Este 15 Nordeste 0 -- -- 76
2018-09-21 10:00:00 22.9 7 Norte 12 Nordeste 0 -- -- 87
2018-09-21 09:00:00 20.9 4 Norte 13 Norte 0 -- -- 93
2018-09-21 08:00:00 20.9 8 Norte 11 Norte 0 -- -- 92
2018-09-21 07:00:00 21.1 5 Norte 13 Norte 0 -- -- 92
2018-09-21 06:00:00 21.6 6 Norte 10 Nordeste 0 -- -- 92
2018-09-21 05:00:00 22 5 Norte 13 Este 0 -- -- 90
2018-09-21 04:00:00 22.6 7 Nordeste 16 Este 0 -- -- 88
2018-09-21 03:00:00 23.3 9 Este 16 Este 0 -- -- 84
2018-09-21 02:00:00 23.2 4 Nordeste 17 Este 0 -- -- 84
2018-09-21 01:00:00 23.2 11 Este 18 Este 0 -- -- 85
2018-09-21 00:00:00 23.4 4 Norte 13 Nordeste 0 -- -- 84
2018-09-20 23:00:00 24.5 6 Nordeste 34 Sudeste 0 -- -- 77
2018-09-20 22:00:00 25.5 18 Sudeste 35 Este 0 -- -- 71
2018-09-20 21:00:00 26 18 Este 38 Sudeste 0 -- -- 68
2018-09-20 20:00:00 27.9 20 Este 31 Este 0 -- -- 58
2018-09-20 19:00:00 29.3 18 Este 30 Este 0 -- -- 56
2018-09-20 18:00:00 30.4 20 Este 34 Este 0 -- -- 56
2018-09-20 17:00:00 27.9 20 Sudeste 33 Sur 0 -- -- 75
2018-09-20 16:00:00 27.9 29 Sur 37 Sur 0 -- -- 75
2018-09-20 15:00:00 27.2 30 Sur 39 Sur 0 -- -- 76
2018-09-20 14:00:00 27.4 31 Sur 40 Sur 0 -- -- 76
2018-09-20 13:00:00 28.3 27 Sur 35 Sudeste 0 -- -- 71
2018-09-20 12:00:00 29.4 16 Este 27 Sudeste 0 -- -- 63
2018-09-20 11:00:00 28.2 13 Sudeste 30 Este 0 -- -- 67
2018-09-20 10:00:00 26.2 18 Sudeste 28 Este 0 -- -- 75
2018-09-20 09:00:00 24.3 13 Este 27 Sudeste 0 -- -- 83
2018-09-20 08:00:00 23.9 12 Sudeste 28 Este 0 -- -- 82
2018-09-20 07:00:00 24 17 Este 39 Este 0 -- -- 83
2018-09-20 06:00:00 23.7 14 Este 28 Este 0 -- -- 82
2018-09-20 05:00:00 23.4 7 Nordeste 14 Nordeste 0 -- -- 84
2018-09-20 04:00:00 23.6 4 Nordeste 30 Este 0 -- -- 83
2018-09-20 03:00:00 24.3 13 Este 50 Nordeste 0 -- -- 80
2018-09-20 02:00:00 25.4 21 Este 42 Este 0 -- -- 72
2018-09-20 01:00:00 24 12 Norte 21 Nordeste 0 -- -- 81
2018-09-20 00:00:00 23.9 3 Norte 23 Nordeste 0 -- -- 81
2018-09-19 23:00:00 24.1 11 Nordeste 22 Nordeste 0 -- -- 82
2018-09-19 22:00:00 24.7 10 Nordeste 17 Nordeste 0 -- -- 76
2018-09-19 21:00:00 25.4 10 Sudoeste 18 Oeste 0 -- -- 81
2018-09-19 20:00:00 27.8 12 Oeste 23 Sur 0 -- -- 71
2018-09-19 19:00:00 27.4 23 Sur 30 Sudeste 0 -- -- 75
2018-09-19 18:00:00 28 6 Oeste 28 Sur 0 -- -- 73
2018-09-19 17:00:00 28.6 20 Sur 25 Sur 0 -- -- 74
2018-09-19 16:00:00 29 19 Sur 27 Sur 0 -- -- 71
2018-09-19 15:00:00 29.1 11 Sudoeste 21 Sur 0 -- -- 72
2018-09-19 14:00:00 28.1 16 Sur 19 Sur 0 -- -- 76
2018-09-19 13:00:00 26.9 9 Oeste 13 Sudoeste 0 -- -- 80
2018-09-19 12:00:00 26.7 9 Sudoeste 17 Nordeste 0 -- -- 79
2018-09-19 11:00:00 26 9 Nordeste 14 Nordeste 0 -- -- 80
2018-09-19 10:00:00 22.8 8 Norte 13 Nordeste 0 -- -- 93
2018-09-19 09:00:00 20.5 4 Norte 9 Norte 0 -- -- 100
2018-09-19 08:00:00 20.3 4 Norte 8 Norte 0 -- -- 100
2018-09-19 07:00:00 20.1 5 Norte 8 Nordeste 0 -- -- 100
2018-09-19 06:00:00 20.1 4 Norte 12 Norte 0 -- -- 99
2018-09-19 05:00:00 20.3 5 Norte 9 Norte 0 -- -- 100
2018-09-19 04:00:00 21.1 0 Calma 3 Norte 0 -- -- 100
2018-09-19 03:00:00 21.8 0 Calma 6 Sur 0 -- -- 100
2018-09-19 02:00:00 22.2 4 Sur 10 Sur 0 -- -- 99
2018-09-19 01:00:00 22.7 9 Sur 11 Sur 0 -- -- 97
2018-09-19 00:00:00 23 3 Norte 9 Nordeste 0 -- -- 92
2018-09-18 23:00:00 23.2 5 Nordeste 8 Sudeste 0 -- -- 93
2018-09-18 22:00:00 23.7 4 Sudeste 10 Oeste 0 -- -- 93
2018-09-18 21:00:00 24 9 Oeste 14 Oeste 0 -- -- 93
2018-09-18 20:00:00 25 11 Oeste 17 Oeste 0 -- -- 89
2018-09-18 19:00:00 25.6 15 Oeste 23 Oeste 0 -- -- 87
2018-09-18 18:00:00 25.5 19 Oeste 25 Oeste 0 -- -- 88
2018-09-18 17:00:00 26.1 22 Oeste 26 Oeste 0 -- -- 85
2018-09-18 16:00:00 25.9 21 Oeste 24 Oeste 0 -- -- 85
2018-09-18 15:00:00 26.2 17 Oeste 20 Oeste 0 -- -- 84
2018-09-18 14:00:00 26.1 13 Oeste 17 Oeste 0 -- -- 86
2018-09-18 13:00:00 25.6 12 Sudoeste 14 Sudoeste 0 -- -- 87
2018-09-18 12:00:00 24.9 12 Oeste 14 Oeste 0 -- -- 89
2018-09-18 11:00:00 24.5 8 Oeste 9 Oeste 0 -- -- 90
2018-09-18 10:00:00 23.3 5 Oeste 7 Oeste 0 -- -- 95
2018-09-18 09:00:00 21.2 4 Nordeste 7 Norte 0 -- -- 97
2018-09-18 08:00:00 21.4 4 Nordeste 6 Este 0 -- -- 97
2018-09-18 07:00:00 22.1 3 Norte 8 Norte 0 -- -- 95
2018-09-18 06:00:00 22.2 4 Norte 9 Norte 0 -- -- 94
2018-09-18 05:00:00 22.4 6 Nordeste 9 Nordeste 0 -- -- 93
2018-09-18 04:00:00 22.9 4 Nordeste 12 Nordeste 0 -- -- 91
2018-09-18 03:00:00 23.4 6 Nordeste 14 Norte 0 -- -- 89
2018-09-18 02:00:00 24.1 11 Nordeste 22 Nordeste 0 -- -- 85
2018-09-18 01:00:00 24.2 10 Nordeste 25 Nordeste 0 -- -- 87
2018-09-18 00:00:00 24.5 12 Nordeste 26 Nordeste 0 -- -- 85
2018-09-17 23:00:00 24.9 14 Nordeste 23 Nordeste 0 -- -- 84
2018-09-17 22:00:00 25.2 13 Nordeste 23 Nordeste 0 -- -- 82
2018-09-17 21:00:00 25.8 11 Nordeste 29 Nordeste 0 -- -- 80
2018-09-17 20:00:00 27.5 21 Este 35 Este 0 -- -- 74
2018-09-17 19:00:00 29.4 22 Este 36 Sudeste 0 -- -- 68
2018-09-17 18:00:00 30.4 23 Este 43 Sudeste 0 -- -- 64
2018-09-17 17:00:00 30.7 28 Este 45 Este 0 -- -- 63
2018-09-17 16:00:00 30.9 25 Este 47 Este 0 -- -- 62
2018-09-17 15:00:00 30.6 27 Sudeste 48 Este 0 -- -- 64
2018-09-17 14:00:00 30.1 33 Sudeste 50 Sudeste 0 -- -- 66
2018-09-17 13:00:00 29.1 28 Sudeste 45 Sudeste 0 -- -- 70
2018-09-17 12:00:00 28.8 23 Sudeste 43 Sudeste 0 -- -- 72
2018-09-17 11:00:00 27.6 23 Sudeste 46 Sudeste 0 -- -- 76
2018-09-17 10:00:00 26.2 26 Sudeste 48 Sudeste 0 -- -- 81
2018-09-17 09:00:00 25 19 Este 49 Este 0 -- -- 84
2018-09-17 08:00:00 24.8 13 Este 51 Este 0 -- -- 83
2018-09-17 07:00:00 24.6 15 Norte 28 Nordeste 0 -- -- 82
2018-09-17 06:00:00 24.4 15 Este 54 Este 0 -- -- 86
2018-09-17 05:00:00 24.5 36 Este 53 Este 0 -- -- 85
2018-09-17 04:00:00 24.6 12 Este 30 Sudeste 0 -- -- 85
2018-09-17 03:00:00 24.6 13 Nordeste 28 Este 0 -- -- 85
2018-09-17 02:00:00 24.7 17 Este 32 Este 0 -- -- 85
2018-09-17 01:00:00 24.6 13 Este 39 Este 0 -- -- 85
2018-09-17 00:00:00 24.6 21 Este 43 Este 0 -- -- 85
2018-09-16 23:00:00 24.6 14 Este 42 Este 0 -- -- 85
2018-09-16 22:00:00 24.8 16 Este 30 Este 0 -- -- 83
2018-09-16 21:00:00 25.2 22 Este 36 Este 0 -- -- 80
2018-09-16 20:00:00 26.8 22 Este 41 Este 0 -- -- 74
2018-09-16 19:00:00 28.1 30 Este 39 Este 0 -- -- 69
2018-09-16 18:00:00 29.7 25 Este 39 Este 0 -- -- 64
2018-09-16 17:00:00 30.7 21 Este 50 Sudeste 0 -- -- 61
2018-09-16 16:00:00 30.3 28 Este 49 Este 0 -- -- 60
2018-09-16 15:00:00 29.6 25 Este 36 Sudeste 0 -- -- 65
2018-09-16 14:00:00 29.5 16 Este 35 Sudeste 0 -- -- 66
2018-09-16 13:00:00 27.5 11 Nordeste 35 Este 0 -- -- 72
2018-09-16 12:00:00 27.2 19 Este 33 Sudeste 0 -- -- 74
2018-09-16 11:00:00 25.7 14 Este 27 Este 0 -- -- 79
2018-09-16 10:00:00 24.6 9 Nordeste 19 Este 0 -- -- 84
2018-09-16 09:00:00 23.5 7 Nordeste 24 Nordeste 0 -- -- 88
2018-09-16 08:00:00 23.5 11 Nordeste 20 Nordeste 0 -- -- 85
2018-09-16 07:00:00 23.2 14 Nordeste 28 Nordeste 0 -- -- 85
2018-09-16 06:00:00 22.9 18 Nordeste 29 Nordeste 0 -- -- 89
2018-09-16 05:00:00 22.8 19 Nordeste 26 Nordeste 0 -- -- 89
2018-09-16 04:00:00 22.6 18 Nordeste 21 Nordeste 0 -- -- 89
2018-09-16 03:00:00 22.6 13 Nordeste 18 Nordeste 0 -- -- 91
2018-09-16 02:00:00 22.7 7 Norte 19 Este 0 -- -- 89
2018-09-16 01:00:00 22.9 11 Este 18 Este 0 -- -- 89
2018-09-16 00:00:00 22.5 3 Norte 9 Norte 0 -- -- 89
2018-09-15 23:00:00 23.2 4 Norte 15 Nordeste 0 -- -- 86
2018-09-15 22:00:00 23.7 8 Nordeste 14 Nordeste 0 -- -- 83
2018-09-15 21:00:00 24.4 7 Este 15 Este 0 -- -- 79
2018-09-15 20:00:00 25.9 9 Este 13 Este 0 -- -- 77
2018-09-15 19:00:00 25.2 5 Nordeste 20 Nordeste 0 -- -- 75
2018-09-15 18:00:00 24.6 6 Norte 17 Nordeste 0 -- -- 79
2018-09-15 17:00:00 24 12 Nordeste 18 Nordeste 0 -- -- 79
2018-09-15 16:00:00 24.6 3 Sudoeste 18 Oeste 0 -- -- 85
2018-09-15 15:00:00 26 15 Sudoeste 18 Oeste 0 -- -- 81
2018-09-15 14:00:00 26.7 13 Oeste 16 Oeste 0 -- -- 79
2018-09-15 13:00:00 26.3 13 Sudoeste 15 Sudoeste 0 -- -- 78
2018-09-15 12:00:00 27.3 5 Sur 9 Nordeste 0 -- -- 75
2018-09-15 11:00:00 24.6 2 Norte 10 Norte 0 -- -- 81
2018-09-15 10:00:00 22.4 6 Norte 9 Norte 0 -- -- 89
2018-09-15 09:00:00 20.7 5 Noroeste 15 Nordeste 0 -- -- 93
2018-09-15 08:00:00 20.8 6 Nordeste 14 Norte 0 -- -- 91
2018-09-15 07:00:00 20.3 7 Norte 14 Norte 0 -- -- 91
2018-09-15 06:00:00 19.8 4 Norte 14 Norte 0 -- -- 92
2018-09-15 05:00:00 20.1 8 Norte 16 Norte 0 -- -- 88
2018-09-15 04:00:00 20.2 14 Nordeste 22 Nordeste 0 -- -- 89
2018-09-15 03:00:00 20.3 7 Norte 12 Nordeste 0 -- -- 90
2018-09-15 02:00:00 20.6 9 Nordeste 18 Norte 0 -- -- 88
2018-09-15 01:00:00 21.2 10 Norte 23 Norte 0 -- -- 87
2018-09-15 00:00:00 21.7 13 Norte 34 Nordeste 0 -- -- 83
2018-09-14 23:00:00 23.1 18 Norte 39 Nordeste 0 -- -- 75
2018-09-14 22:00:00 23.7 10 Nordeste 15 Norte 0 -- -- 85
2018-09-14 21:00:00 23.2 5 Norte 9 Norte 0 -- -- 93
2018-09-14 20:00:00 23.4 6 Oeste 12 Oeste 0 -- -- 93
2018-09-14 19:00:00 24.7 9 Sur 16 Sudeste 0 -- -- 86
2018-09-14 18:00:00 25.7 10 Este 22 Nordeste 0 -- -- 77
2018-09-14 17:00:00 26.8 7 Nordeste 21 Nordeste 0 -- -- 71
2018-09-14 16:00:00 25 10 Oeste 16 Oeste 0 -- -- 86
2018-09-14 15:00:00 24.4 5 Oeste 13 Sudoeste 0 -- -- 90
2018-09-14 14:00:00 24.1 8 Oeste 13 Oeste 0 -- -- 89
2018-09-14 13:00:00 24.8 9 Oeste 12 Sudoeste 0 -- -- 88
2018-09-14 12:00:00 24.8 5 Oeste 11 Sudoeste 0 -- -- 91
2018-09-14 11:00:00 22.6 10 Sudoeste 16 Sur 0 -- -- 99
2018-09-14 10:00:00 22.4 5 Sur 10 Sur 0 -- -- 98
2018-09-14 09:00:00 21.9 5 Sur 6 Sur 0 -- -- 100
2018-09-14 08:00:00 21.5 0 Calma 5 Noroeste 0 -- -- 100
2018-09-14 07:00:00 21.5 3 Nordeste 9 Nordeste 0.2 -- -- 99
2018-09-14 06:00:00 22.1 0 Calma 6 Nordeste 1 -- -- 98
2018-09-14 05:00:00 22.1 3 Sudeste 5 Sudeste 0 -- -- 97
2018-09-14 04:00:00 22.3 4 Sur 5 Sur 0 -- -- 96
2018-09-14 03:00:00 22.3 0 Calma 4 Noroeste 0 -- -- 96
2018-09-14 02:00:00 22.3 3 Oeste 5 Oeste 0 -- -- 96
2018-09-14 01:00:00 22.2 0 Calma 9 Oeste 0 -- -- 95
2018-09-14 00:00:00 22.3 4 Oeste 6 Oeste 0 -- -- 95
2018-09-13 23:00:00 22.5 4 Sudoeste 7 Oeste 0 -- -- 95
2018-09-13 22:00:00 22.7 6 Oeste 10 Sudoeste 0 -- -- 95
2018-09-13 21:00:00 23.1 8 Oeste 15 Sudoeste 0 -- -- 94
2018-09-13 20:00:00 24.3 12 Sudoeste 20 Sudoeste 0 -- -- 90
2018-09-13 19:00:00 25.2 18 Sudoeste 22 Sudoeste 0 -- -- 86
2018-09-13 18:00:00 26.3 13 Sudoeste 16 Sur 0 -- -- 82
2018-09-13 17:00:00 26.9 13 Sudoeste 17 Sudoeste 0 -- -- 80
2018-09-13 16:00:00 26.8 12 Sudoeste 16 Sudoeste 0 -- -- 81
2018-09-13 15:00:00 26.9 11 Sudoeste 19 Sudoeste 0 -- -- 78
2018-09-13 14:00:00 25 13 Sudoeste 17 Sudoeste 0 -- -- 88
2018-09-13 13:00:00 24.6 9 Sudoeste 15 Sudoeste 0 -- -- 92
2018-09-13 12:00:00 23.4 16 Sudoeste 19 Sudoeste 0 -- -- 95
2018-09-13 11:00:00 25.5 8 Sudoeste 9 Sudoeste 0 -- -- 85
2018-09-13 10:00:00 22.8 0 Calma 8 Noroeste 0 -- -- 96
2018-09-13 09:00:00 21.7 6 Norte 9 Norte 0 -- -- 98
2018-09-13 08:00:00 21.7 3 Este 5 Este 0 -- -- 100
2018-09-13 07:00:00 21.3 0 Calma -- -- 0 -- -- 99
2018-09-13 06:00:00 21 0 Calma 2 Este 0 -- -- 99
2018-09-13 05:00:00 20.9 3 Nordeste 8 Nordeste 0 -- -- 98
2018-09-13 04:00:00 21.4 0 Calma 11 Norte 0 -- -- 97
2018-09-13 03:00:00 21.7 5 Norte 8 Norte 0 -- -- 96
2018-09-13 02:00:00 21.8 4 Norte 6 Norte 0 -- -- 96
2018-09-13 01:00:00 22.5 0 Calma 4 Sudeste 0 -- -- 98
2018-09-13 00:00:00 22.6 4 Sudeste 14 Sudoeste 0 -- -- 98
2018-09-12 23:00:00 23 14 Oeste 23 Oeste 0 -- -- 96
2018-09-12 22:00:00 23.1 18 Oeste 23 Oeste 0 -- -- 95
2018-09-12 21:00:00 23.3 14 Oeste 20 Oeste 0 -- -- 95
2018-09-12 20:00:00 23.8 16 Oeste 22 Oeste 0 -- -- 92
2018-09-12 19:00:00 25.8 14 Sudoeste 22 Sur 0 -- -- 83
2018-09-12 18:00:00 26.9 18 Sur 28 Sur 0 -- -- 79
2018-09-12 17:00:00 26.7 22 Sur 28 Sur 0 -- -- 80
2018-09-12 16:00:00 25.8 21 Sur 30 Sur 0 -- -- 84
2018-09-12 15:00:00 25.8 23 Sur 36 Sur 0 -- -- 85
2018-09-12 14:00:00 25.6 31 Sur 37 Sur 0 -- -- 86
2018-09-12 13:00:00 25.4 27 Sur 34 Sur 0 -- -- 87
2018-09-12 12:00:00 26.1 18 Sur 26 Sur 0 -- -- 85
2018-09-12 11:00:00 25.6 6 Sudoeste 9 Sudoeste 0 -- -- 85
2018-09-12 10:00:00 25.2 8 Sudoeste 28 Sur 0 -- -- 84
2018-09-12 09:00:00 24.7 11 Sudeste 37 Este 0 -- -- 87
2018-09-12 08:00:00 24.9 18 Este 40 Este 0 -- -- 86
2018-09-12 07:00:00 24.7 8 Este 22 Sur 0 -- -- 87
2018-09-12 06:00:00 24.7 8 Oeste 22 Sudoeste 0 -- -- 87
2018-09-12 05:00:00 25 7 Sudeste 46 Sudeste 0 -- -- 86
2018-09-12 04:00:00 24.9 17 Sudeste 47 Sudeste 0 -- -- 86
2018-09-12 03:00:00 25 35 Sudeste 60 Sudeste 0 -- -- 87
2018-09-12 02:00:00 24.8 35 Sudeste 63 Sudeste 0 -- -- 88
2018-09-12 01:00:00 25 40 Sudeste 62 Este 0 -- -- 87
2018-09-12 00:00:00 25.1 27 Este 57 Sudeste 0 -- -- 86
2018-09-11 23:00:00 25.2 21 Sudeste 50 Sudeste 0 -- -- 85
2018-09-11 22:00:00 25.3 23 Este 54 Este 0 -- -- 84
2018-09-11 21:00:00 25.4 28 Sudeste 63 Este 0 -- -- 83
2018-09-11 20:00:00 26.7 29 Este 53 Sudeste 0 -- -- 77
2018-09-11 19:00:00 28.1 29 Sudeste 57 Sudeste 0 -- -- 70
2018-09-11 18:00:00 28.8 36 Este 59 Este 0 -- -- 67
2018-09-11 17:00:00 29.5 38 Sudeste 62 Sudeste 0 -- -- 63
2018-09-11 16:00:00 30.2 36 Sudeste 59 Sudeste 0 -- -- 62
2018-09-11 15:00:00 30.3 36 Sudeste 55 Este 0 -- -- 60
2018-09-11 14:00:00 29.7 31 Sudeste 67 Sudeste 0 -- -- 63
2018-09-11 13:00:00 28.6 39 Sudeste 72 Sudeste 0 -- -- 66
2018-09-11 12:00:00 27.7 36 Sudeste 64 Sudeste 0 -- -- 70
2018-09-11 11:00:00 26.9 33 Sudeste 58 Sudeste 0 -- -- 72
2018-09-11 10:00:00 25.8 29 Este 58 Sudeste 0 -- -- 75
2018-09-11 09:00:00 24.5 31 Sudeste 60 Este 0 -- -- 80
2018-09-11 08:00:00 24.3 36 Este 59 Sudeste 0 -- -- 84
2018-09-11 07:00:00 24.6 28 Sudeste 58 Este 0 -- -- 82
2018-09-11 06:00:00 24.6 28 Este 52 Este 0 -- -- 82
2018-09-11 05:00:00 24.6 27 Este 55 Sudeste 0 -- -- 82
2018-09-11 04:00:00 24.6 31 Sudeste 61 Sudeste 0 -- -- 81
2018-09-11 03:00:00 24.4 27 Este 50 Este 0 -- -- 82
2018-09-11 02:00:00 24.4 27 Este 54 Este 0 -- -- 80
2018-09-11 01:00:00 24.5 28 Este 51 Este 0 -- -- 79
2018-09-11 00:00:00 24.7 23 Este 38 Este 0 -- -- 80
2018-09-10 23:00:00 24.7 18 Este 36 Este 0 -- -- 80
2018-09-10 22:00:00 24.6 19 Este 39 Este 0 -- -- 79
2018-09-10 21:00:00 25.1 23 Este 43 Este 0 -- -- 76
2018-09-10 20:00:00 26.9 26 Este 46 Este 0 -- -- 64
2018-09-10 19:00:00 28.3 26 Este 47 Este 0 -- -- 59
2018-09-10 18:00:00 29.6 28 Este 45 Este 0 -- -- 55
2018-09-10 17:00:00 30.7 30 Sudeste 48 Sudeste 0 -- -- 49
2018-09-10 16:00:00 31.1 26 Este 45 Este 0 -- -- 50
2018-09-10 15:00:00 30.8 25 Sudeste 41 Este 0 -- -- 51
2018-09-10 14:00:00 31.1 28 Este 42 Este 0 -- -- 49
2018-09-10 13:00:00 30 24 Este 35 Este 0 -- -- 51
2018-09-10 12:00:00 26 10 Oeste 19 Este 0 -- -- 73
2018-09-10 11:00:00 26.5 11 Este 19 Nordeste 0 -- -- 66
2018-09-10 10:00:00 23 8 Nordeste 19 Nordeste 0 -- -- 83
2018-09-10 09:00:00 20.8 11 Norte 18 Norte 0 -- -- 90
2018-09-10 08:00:00 20.8 10 Norte 21 Nordeste 0 -- -- 88
2018-09-10 07:00:00 20.4 13 Nordeste 21 Nordeste 0 -- -- 91
2018-09-10 06:00:00 20 10 Norte 17 Norte 0 -- -- 92
2018-09-10 05:00:00 20.9 10 Nordeste 18 Nordeste 0 -- -- 89
2018-09-10 04:00:00 20.7 14 Nordeste 19 Nordeste 0 -- -- 90
2018-09-10 03:00:00 20.6 16 Nordeste 24 Nordeste 0 -- -- 90
2018-09-10 02:00:00 20.8 15 Nordeste 20 Norte 0 -- -- 90
2018-09-10 01:00:00 20.6 9 Nordeste 13 Nordeste 0 -- -- 90
2018-09-10 00:00:00 20.9 8 Norte 12 Nordeste 0 -- -- 89
2018-09-09 23:00:00 21.6 3 Norte 8 Norte 0 -- -- 84
2018-09-09 22:00:00 22.2 3 Sudoeste 6 Sudoeste 0 -- -- 89
2018-09-09 21:00:00 22.8 6 Oeste 8 Oeste 0 -- -- 85
2018-09-09 20:00:00 23.4 7 Oeste 17 Oeste 0 -- -- 82
2018-09-09 19:00:00 23.2 16 Oeste 21 Sudoeste 0 -- -- 84
2018-09-09 18:00:00 24.3 18 Sudoeste 27 Oeste 0 -- -- 78
2018-09-09 17:00:00 24.6 21 Oeste 26 Oeste 0 -- -- 78
2018-09-09 16:00:00 25.3 19 Oeste 31 Oeste 0 -- -- 71
2018-09-09 15:00:00 24.2 20 Oeste 30 Oeste 0 -- -- 80
2018-09-09 14:00:00 24.1 22 Oeste 30 Oeste 0 -- -- 76
2018-09-09 13:00:00 24.2 17 Sudoeste 22 Sudoeste 0 -- -- 77
2018-09-09 12:00:00 23.6 10 Sudoeste 13 Sudoeste 0 -- -- 81
2018-09-09 11:00:00 22.8 9 Sudoeste 11 Oeste 0 -- -- 84
2018-09-09 10:00:00 21.5 0 Calma 5 Sudoeste 0 -- -- 90
2018-09-09 09:00:00 20.3 0 Calma 6 Nordeste 0 -- -- 95
2018-09-09 08:00:00 19.9 4 Nordeste 10 Nordeste 0 -- -- 96
2018-09-09 07:00:00 19.8 9 Nordeste 15 Nordeste 0 -- -- 96
2018-09-09 06:00:00 19.9 9 Norte 17 Norte 0 -- -- 95
2018-09-09 05:00:00 20.3 10 Norte 22 Norte 0 -- -- 93
2018-09-09 04:00:00 20.6 13 Norte 20 Nordeste 0 -- -- 88
2018-09-09 03:00:00 20.8 8 Norte 22 Nordeste 0 -- -- 86
2018-09-09 02:00:00 21.7 10 Nordeste 20 Norte 0 -- -- 82
2018-09-09 01:00:00 22.1 7 Norte 17 Noroeste 0 -- -- 83
2018-09-09 00:00:00 22.8 4 Nordeste 13 Norte 0 -- -- 80
2018-09-08 23:00:00 23 10 Norte 21 Noroeste 0 -- -- 75
2018-09-08 22:00:00 23.2 13 Noroeste 23 Noroeste 0 -- -- 68
2018-09-08 21:00:00 23.6 13 Noroeste 24 Noroeste 0 -- -- 67
2018-09-08 20:00:00 25.2 12 Norte 27 Noroeste 0 -- -- 60
2018-09-08 19:00:00 25.9 19 Noroeste 27 Oeste 0 -- -- 59
2018-09-08 18:00:00 26.3 16 Oeste 24 Oeste 0 -- -- 58
2018-09-08 17:00:00 24.6 15 Oeste 25 Oeste 0 -- -- 61
2018-09-08 16:00:00 23.7 19 Oeste 28 Oeste 0 -- -- 72
2018-09-08 15:00:00 23.8 23 Oeste 29 Oeste 0 -- -- 72
2018-09-08 14:00:00 26.4 9 Noroeste 17 Norte 0 -- -- 63
2018-09-08 13:00:00 25.2 12 Sudoeste 17 Sudoeste 0 -- -- 74
2018-09-08 12:00:00 24.1 14 Sudoeste 16 Oeste 0 -- -- 74
2018-09-08 11:00:00 22.6 4 Nordeste 7 Nordeste 0 -- -- 76
2018-09-08 10:00:00 20.8 4 Norte 9 Norte 0 -- -- 84
2018-09-08 09:00:00 19.9 5 Norte 8 Norte 0 -- -- 87
2018-09-08 08:00:00 19.5 5 Nordeste 9 Nordeste 0 -- -- 89
2018-09-08 07:00:00 19 4 Norte 10 Norte 0 -- -- 89
2018-09-08 06:00:00 19.1 6 Norte 9 Norte 0 -- -- 89
2018-09-08 05:00:00 19.6 5 Norte 8 Norte 0 -- -- 86
2018-09-08 04:00:00 20 3 Norte 6 Nordeste 0 -- -- 86
2018-09-08 03:00:00 20.3 0 Calma 7 Este 0 -- -- 86
2018-09-08 02:00:00 19.9 6 Este 8 Este 0 -- -- 86
2018-09-08 01:00:00 20.2 5 Nordeste 7 Nordeste 0 -- -- 85
2018-09-08 00:00:00 20.7 5 Nordeste 11 Norte 0 -- -- 83
2018-09-07 23:00:00 21.2 6 Norte 13 Noroeste 0 -- -- 80
2018-09-07 22:00:00 21.7 6 Norte 17 Noroeste 0 -- -- 76
2018-09-07 21:00:00 22.4 9 Norte 25 Noroeste 0 -- -- 72
2018-09-07 20:00:00 24.3 17 Noroeste 23 Norte 0 -- -- 67
2018-09-07 19:00:00 26.3 14 Noroeste 22 Oeste 0 -- -- 59
2018-09-07 18:00:00 26.4 17 Oeste 30 Oeste 0 -- -- 63
2018-09-07 17:00:00 24.9 26 Oeste 31 Oeste 0 -- -- 73
2018-09-07 16:00:00 24.6 26 Oeste 32 Oeste 0 -- -- 74
2018-09-07 15:00:00 23.9 28 Oeste 33 Oeste 0 -- -- 74
2018-09-07 14:00:00 23.7 23 Oeste 27 Oeste 0 -- -- 75
2018-09-07 13:00:00 24.6 14 Sudoeste 17 Sudoeste 0 -- -- 69
2018-09-07 12:00:00 24.6 13 Sudoeste 15 Sudoeste 0 -- -- 71
2018-09-07 11:00:00 23.9 7 Sudoeste 9 Sudoeste 0 -- -- 71
2018-09-07 10:00:00 21.2 5 Nordeste 9 Norte 0 -- -- 81
2018-09-07 09:00:00 18.4 4 Norte 6 Norte 0 -- -- 90
2018-09-07 08:00:00 18.7 5 Norte 7 Norte 0 -- -- 89
2018-09-07 07:00:00 19.3 4 Nordeste 8 Nordeste 0 -- -- 87
2018-09-07 06:00:00 20.2 2 Este 4 Sur 0 -- -- 85
2018-09-07 05:00:00 20.6 3 Sudoeste 18 Oeste 0 -- -- 82
2018-09-07 04:00:00 21.1 15 Oeste 21 Sudoeste 0 -- -- 81
2018-09-07 03:00:00 21.2 12 Oeste 19 Sudoeste 0 -- -- 84
2018-09-07 02:00:00 21.2 12 Sudoeste 22 Sudoeste 0 -- -- 84
2018-09-07 01:00:00 21.4 16 Sudoeste 22 Sudoeste 0 -- -- 84
2018-09-07 00:00:00 21.2 13 Sudoeste 17 Sudoeste 0 -- -- 86
2018-09-06 23:00:00 21.3 12 Sudoeste 18 Sudoeste 0 -- -- 87
2018-09-06 22:00:00 21.6 15 Sudoeste 21 Sudoeste 0 -- -- 87
2018-09-06 21:00:00 21.8 16 Sudoeste 21 Oeste 0 -- -- 86
2018-09-06 20:00:00 22.5 13 Oeste 17 Oeste 0 -- -- 83
2018-09-06 19:00:00 23 15 Sudoeste 25 Oeste 0 -- -- 84
2018-09-06 18:00:00 23.4 21 Oeste 28 Sudoeste 0 -- -- 82
2018-09-06 17:00:00 24.5 22 Oeste 27 Sudoeste 0 -- -- 79
2018-09-06 16:00:00 24.6 22 Oeste 27 Oeste 0 -- -- 79
2018-09-06 15:00:00 24.9 20 Sudoeste 24 Sudoeste 0 -- -- 79
2018-09-06 14:00:00 24.4 19 Oeste 25 Sudoeste 0 -- -- 82
2018-09-06 13:00:00 24.1 20 Sudoeste 24 Sudoeste 0 -- -- 84
2018-09-06 12:00:00 23.2 17 Sudoeste 21 Oeste 0 -- -- 87
2018-09-06 11:00:00 22.8 13 Sudoeste 17 Sudoeste 0 -- -- 90
2018-09-06 10:00:00 21.8 14 Sudoeste 17 Sudoeste 0 -- -- 94
2018-09-06 09:00:00 19.4 2 Noroeste 8 Oeste 0 -- -- 95
2018-09-06 08:00:00 20.4 6 Oeste 14 Oeste 0 -- -- 96
2018-09-06 07:00:00 18.5 2 Noroeste 12 Oeste 0 -- -- 93
2018-09-06 06:00:00 21.3 9 Oeste 15 Sudoeste 0 -- -- 94
2018-09-06 05:00:00 20.7 5 Oeste 13 Oeste 0 -- -- 94
2018-09-06 04:00:00 20.4 4 Oeste 5 Oeste 0 -- -- 94
2018-09-06 03:00:00 20.7 4 Oeste 9 Oeste 0 -- -- 90
2018-09-06 02:00:00 21.3 8 Oeste 12 Noroeste 0 -- -- 85
2018-09-06 01:00:00 20.9 3 Oeste 9 Noroeste 0 -- -- 89
2018-09-06 00:00:00 21.5 6 Noroeste 10 Noroeste 0 -- -- 83
2018-09-05 23:00:00 21.9 8 Noroeste 13 Noroeste 0 -- -- 81
2018-09-05 22:00:00 22.3 9 Noroeste 14 Noroeste 0 -- -- 80
2018-09-05 21:00:00 23.1 9 Oeste 20 Noroeste 0 -- -- 76
2018-09-05 20:00:00 25 15 Noroeste 24 Oeste 0 -- -- 66
2018-09-05 19:00:00 25.4 14 Noroeste 24 Oeste 0 -- -- 69
2018-09-05 18:00:00 25.6 18 Sudoeste 24 Sudoeste 0 -- -- 75
2018-09-05 17:00:00 25.9 21 Sudoeste 24 Sudoeste 0 -- -- 79
2018-09-05 16:00:00 24.6 18 Oeste 26 Oeste 0 -- -- 84
2018-09-05 15:00:00 24.6 21 Oeste 27 Sudoeste 0 -- -- 83
2018-09-05 14:00:00 24.6 21 Sudoeste 28 Sudoeste 0 -- -- 84
2018-09-05 13:00:00 24.6 22 Sudoeste 28 Sudoeste 0 -- -- 83
2018-09-05 12:00:00 23.7 24 Sudoeste 30 Sudoeste 0 -- -- 87
2018-09-05 11:00:00 22.7 15 Sur 18 Sur 0 -- -- 91
2018-09-05 10:00:00 21.3 0 Calma 7 Norte 0 -- -- 91
2018-09-05 09:00:00 19.2 5 Norte 10 Norte 0 -- -- 93
2018-09-05 08:00:00 18.7 6 Norte 10 Norte 0 -- -- 94
2018-09-05 07:00:00 18.4 6 Norte 9 Norte 0 -- -- 94
2018-09-05 06:00:00 18.2 8 Norte 11 Norte 0 -- -- 93
2018-09-05 05:00:00 19.2 6 Norte 8 Norte 0 -- -- 93
2018-09-05 04:00:00 19.3 4 Norte 8 Oeste 0 -- -- 91
2018-09-05 03:00:00 21.2 5 Oeste 11 Oeste 0 -- -- 86
2018-09-05 02:00:00 21.3 5 Oeste 9 Oeste 0 -- -- 89
2018-09-05 01:00:00 21.4 7 Oeste 10 Oeste 0 -- -- 87
2018-09-05 00:00:00 21.8 5 Oeste 13 Oeste 0 -- -- 83
2018-09-04 23:00:00 21.8 6 Oeste 9 Oeste 0 -- -- 84
2018-09-04 22:00:00 22.2 6 Oeste 13 Oeste 0 -- -- 84
2018-09-04 21:00:00 22.8 12 Oeste 18 Oeste 0 -- -- 86
2018-09-04 20:00:00 24.3 14 Oeste 21 Oeste 0 -- -- 79
2018-09-04 19:00:00 24.9 19 Oeste 27 Sudoeste 0 -- -- 77
2018-09-04 18:00:00 25.3 21 Sudoeste 28 Sudoeste 0 -- -- 74
2018-09-04 17:00:00 25.5 23 Oeste 30 Oeste 0 -- -- 72
2018-09-04 16:00:00 25.3 26 Oeste 32 Oeste 0 -- -- 73
2018-09-04 15:00:00 25.5 19 Sudoeste 24 Oeste 0 -- -- 72
2018-09-04 14:00:00 25.4 18 Sudoeste 21 Oeste 0 -- -- 76
2018-09-04 13:00:00 25.4 14 Sudoeste 17 Sudoeste 0 -- -- 73
2018-09-04 12:00:00 24.9 14 Sudoeste 16 Sudoeste 0 -- -- 75
2018-09-04 11:00:00 23.9 8 Sur 11 Sur 0 -- -- 80
2018-09-04 10:00:00 22.1 0 Calma 4 Nordeste 0 -- -- 84
2018-09-04 09:00:00 20 2 Nordeste 5 Nordeste 0 -- -- 89
2018-09-04 08:00:00 19.2 2 Este 6 Norte 0 -- -- 91
2018-09-04 07:00:00 19.8 4 Norte 7 Norte 0 -- -- 86
2018-09-04 06:00:00 20.7 5 Norte 14 Noroeste 0 -- -- 82
2018-09-04 05:00:00 21.3 8 Noroeste 14 Noroeste 0 -- -- 82
2018-09-04 04:00:00 22.1 10 Noroeste 15 Oeste 0 -- -- 82
2018-09-04 03:00:00 22.3 5 Sudoeste 8 Oeste 0 -- -- 83
2018-09-04 02:00:00 22.1 4 Oeste 13 Oeste 0 -- -- 85
2018-09-04 01:00:00 22.4 9 Oeste 13 Oeste 0 -- -- 84
2018-09-04 00:00:00 22.3 6 Oeste 12 Noroeste 0 -- -- 81
2018-09-03 23:00:00 22.1 6 Oeste 10 Oeste 0 -- -- 84
2018-09-03 22:00:00 22.2 6 Noroeste 13 Oeste 0 -- -- 84
2018-09-03 21:00:00 22.8 8 Noroeste 19 Noroeste 0 -- -- 79
2018-09-03 20:00:00 24.4 14 Oeste 27 Oeste 0 -- -- 71
2018-09-03 19:00:00 24.8 20 Oeste 27 Oeste 0 -- -- 75
2018-09-03 18:00:00 25.1 19 Oeste 27 Oeste 0 -- -- 79
2018-09-03 17:00:00 25.6 21 Oeste 27 Oeste 0 -- -- 75
2018-09-03 16:00:00 25.5 20 Oeste 26 Oeste 0 -- -- 76
2018-09-03 15:00:00 25.7 17 Oeste 22 Oeste 0 -- -- 77
2018-09-03 14:00:00 25.6 15 Sudoeste -- -- -- -- -- 78
2018-09-03 13:00:00 26.4 14 Sudoeste -- -- -- -- -- 78
2018-09-03 12:00:00 -- 16 Oeste -- -- -- -- -- --
2018-09-03 11:00:00 -- -- -- -- -- -- -- -- --
2018-09-03 10:00:00 23.5 6 Sudoeste 8 Sudoeste 0 -- -- 93
2018-09-03 09:00:00 21.8 3 Este 7 Este 0 -- -- 97
2018-09-03 08:00:00 21 3 Nordeste 6 Norte 0 -- -- 96
2018-09-03 07:00:00 21.2 5 Nordeste 6 Nordeste 0 -- -- 94
2018-09-03 06:00:00 22.3 0 Calma 6 Oeste 0 -- -- 94
2018-09-03 05:00:00 22.6 0 Calma 8 Sur 0 -- -- 93
2018-09-03 04:00:00 22.9 5 Sur 12 Sudoeste 0 -- -- 93
2018-09-03 03:00:00 23.1 8 Sur 12 Sudoeste 0 -- -- 93
2018-09-03 02:00:00 22.9 9 Sudoeste 22 Sudoeste 0 -- -- 94
2018-09-03 01:00:00 22.5 21 Sudoeste 32 Sudoeste 0 -- -- 97
2018-09-03 00:00:00 22.5 26 Sudoeste 31 Sudoeste 0 -- -- 97
2018-09-02 23:00:00 22.9 28 Sudoeste 46 Sur 0 -- -- 95
2018-09-02 22:00:00 24.7 40 Sur 45 Sur 0 -- -- 87
2018-09-02 21:00:00 25.2 23 Sudeste 38 Sur 0 -- -- 80
2018-09-02 20:00:00 26.2 29 Sur 35 Sur 0 -- -- 80
2018-09-02 19:00:00 27.2 30 Sur 36 Sur 0 -- -- 76
2018-09-02 18:00:00 28.7 29 Sur 36 Sur 0 -- -- 70
2018-09-02 17:00:00 31.1 29 Sur 39 Sur 0 -- -- 61
2018-09-02 16:00:00 34.7 15 Este 39 Sudeste 0 -- -- 43
2018-09-02 15:00:00 33.5 23 Este 48 Este 0 -- -- 49
2018-09-02 14:00:00 32.5 23 Sudeste 40 Sudeste 0 -- -- 54
2018-09-02 13:00:00 31.4 25 Este 44 Sudeste 0 -- -- 56
2018-09-02 12:00:00 30 25 Sudeste 48 Sudeste 0 -- -- 62
2018-09-02 11:00:00 29 25 Sudeste 51 Este 0 -- -- 67
2018-09-02 10:00:00 27.8 30 Este 56 Este 0 -- -- 68
2018-09-02 09:00:00 26.2 29 Este 50 Este 0 -- -- 76
2018-09-02 08:00:00 25.8 22 Este 48 Este 0 -- -- 79
2018-09-02 07:00:00 25.6 18 Este 45 Este 0 -- -- 80
2018-09-02 06:00:00 25.2 20 Este 36 Este 0 -- -- 82
2018-09-02 05:00:00 25.3 16 Este 31 Este 0 -- -- 79
2018-09-02 04:00:00 25.6 15 Sudeste 49 Este 0 -- -- 77
2018-09-02 03:00:00 26.3 26 Este 55 Sudeste 0 -- -- 70
2018-09-02 02:00:00 26.5 8 Nordeste 28 Sur 0 -- -- 69
2018-09-02 01:00:00 26.3 11 Nordeste 35 Nordeste 0 -- -- 70
2018-09-02 00:00:00 26.6 8 Nordeste 35 Este 0 -- -- 70
2018-09-01 23:00:00 26.7 6 Norte 30 Nordeste 0 -- -- 68
2018-09-01 22:00:00 26.8 14 Nordeste 24 Nordeste 0 -- -- 69
2018-09-01 21:00:00 27.4 13 Nordeste 37 Este 0 -- -- 66
2018-09-01 20:00:00 28.5 13 Este 41 Nordeste 0 -- -- 63
2018-09-01 19:00:00 30 19 Este 44 Este 0 -- -- 61
2018-09-01 18:00:00 30.6 28 Este 51 Sudeste 0 -- -- 59
2018-09-01 17:00:00 31.2 24 Este 60 Este 0 -- -- 60
2018-09-01 16:00:00 30.8 36 Este 68 Sudeste 0 -- -- 63
2018-09-01 15:00:00 30.6 38 Este 64 Sudeste 0 -- -- 64
2018-09-01 14:00:00 30.2 38 Este 64 Este 0 -- -- 65
2018-09-01 13:00:00 29.8 40 Este 60 Sudeste 0 -- -- 67
2018-09-01 12:00:00 29.4 30 Este 63 Sudeste 0 -- -- 67
2018-09-01 11:00:00 28.4 36 Sudeste 66 Sudeste 0 -- -- 70
2018-09-01 10:00:00 26.9 40 Sudeste 65 Sudeste 0 -- -- 75
2018-09-01 09:00:00 25.7 25 Este 44 Sudeste 0 -- -- 77
2018-09-01 08:00:00 24.9 17 Sudeste 46 Sudeste 0 -- -- 80
2018-09-01 07:00:00 25 14 Sudeste 45 Este 0 -- -- 81
2018-09-01 06:00:00 25 22 Este 56 Sudeste 0 -- -- 80
2018-09-01 05:00:00 25 34 Este 59 Este 0 -- -- 81
2018-09-01 04:00:00 25 31 Sudeste 62 Sudeste 0 -- -- 80
2018-09-01 03:00:00 25.2 25 Este 50 Este 0 -- -- 79
2018-09-01 02:00:00 25.2 19 Este 51 Este 0 -- -- 78
2018-09-01 01:00:00 25.4 18 Nordeste 39 Este 0 -- -- 76
2018-09-01 00:00:00 25.6 12 Nordeste 36 Este 0 -- -- 74
2018-08-31 23:00:00 25.9 8 Nordeste 25 Este 0 -- -- 71
2018-08-31 22:00:00 26.5 13 Norte 30 Norte 0 -- -- 65
2018-08-31 21:00:00 27.3 8 Norte 26 Este 0 -- -- 63
2018-08-31 20:00:00 28.9 15 Este 43 Este 0 -- -- 58
2018-08-31 19:00:00 30.2 19 Este 41 Este 0 -- -- 53
2018-08-31 18:00:00 30.6 27 Este 57 Este 0 -- -- 56
2018-08-31 17:00:00 30.3 34 Este 62 Este 0 -- -- 61
2018-08-31 16:00:00 30.3 40 Este 59 Este 0 -- -- 60
2018-08-31 15:00:00 30.6 34 Este 62 Sudeste 0 -- -- 59
2018-08-31 14:00:00 30.1 35 Este 57 Este 0 -- -- 61
2018-08-31 13:00:00 29.4 39 Este 62 Este 0 -- -- 63
2018-08-31 12:00:00 29 34 Este 51 Este 0 -- -- 64
2018-08-31 11:00:00 28.4 18 Este 39 Este 0 -- -- 63
2018-08-31 10:00:00 26.8 19 Nordeste 33 Este 0 -- -- 70
2018-08-31 09:00:00 25.4 13 Este 49 Nordeste 0 -- -- 76
2018-08-31 08:00:00 25.1 19 Nordeste 32 Norte 0 -- -- 75
2018-08-31 07:00:00 25.1 15 Nordeste 58 Este 0 -- -- 77
2018-08-31 06:00:00 25.8 21 Nordeste 45 Norte 0 -- -- 72
2018-08-31 05:00:00 25.1 13 Norte 28 Noroeste 0 -- -- 77
2018-08-31 04:00:00 24.9 10 Norte 31 Nordeste 0 -- -- 79
2018-08-31 03:00:00 24.8 8 Norte 20 Nordeste 0 -- -- 81
2018-08-31 02:00:00 25.2 12 Nordeste 32 Nordeste 0 -- -- 80
2018-08-31 01:00:00 25.4 12 Nordeste 23 Norte 0 -- -- 80
2018-08-31 00:00:00 25.7 10 Nordeste 26 Sudeste 0 -- -- 79
2018-08-30 23:00:00 26.2 10 Sudeste 25 Sudeste 0 -- -- 76
2018-08-30 22:00:00 26.6 17 Este 26 Este 0 -- -- 72
2018-08-30 21:00:00 27.9 14 Este 32 Este 0 -- -- 66
2018-08-30 20:00:00 29.8 24 Este 37 Sudeste 0 -- -- 59
2018-08-30 19:00:00 31.1 24 Este 39 Este 0 -- -- 53
2018-08-30 18:00:00 31.8 19 Este 39 Este 0 -- -- 54
2018-08-30 17:00:00 31.6 25 Este 39 Este 0 -- -- 54
2018-08-30 16:00:00 26.2 12 Oeste 19 Oeste 0 -- -- 76
2018-08-30 15:00:00 25.1 15 Oeste 23 Oeste 0 -- -- 80
2018-08-30 14:00:00 24.3 19 Oeste 23 Oeste 0 -- -- 81
2018-08-30 13:00:00 24.7 16 Sudoeste 20 Sudoeste 0 -- -- 80
2018-08-30 12:00:00 23.7 13 Oeste 15 Oeste 0 -- -- 81
2018-08-30 11:00:00 23.3 7 Sudoeste 9 Oeste 0 -- -- 83
2018-08-30 10:00:00 21.8 7 Sudoeste 10 Sudoeste 0 -- -- 88
2018-08-30 09:00:00 20.5 3 Norte 10 Sur 0 -- -- 91
2018-08-30 08:00:00 20.9 9 Sudoeste 13 Sudoeste 0 -- -- 91
2018-08-30 07:00:00 21.1 12 Sudoeste 16 Sudoeste 0 -- -- 91
2018-08-30 06:00:00 21.2 10 Sudoeste 15 Sudoeste 0 -- -- 90
2018-08-30 05:00:00 21.5 10 Sudoeste 14 Sudoeste 0 -- -- 89
2018-08-30 04:00:00 21.6 9 Oeste 12 Oeste 0 -- -- 91
2018-08-30 03:00:00 21.6 10 Oeste 15 Sudoeste 0 -- -- 91
2018-08-30 02:00:00 21.8 9 Sudoeste 11 Sudoeste 0 -- -- 92
2018-08-30 01:00:00 21.6 3 Noroeste 8 Noroeste 0 -- -- 90
2018-08-30 00:00:00 21.9 5 Oeste 8 Oeste 0 -- -- 89
2018-08-29 23:00:00 22 4 Oeste 10 Noroeste 0 -- -- 88
2018-08-29 22:00:00 22.2 8 Noroeste 14 Norte 0 -- -- 86
2018-08-29 21:00:00 23.5 8 Noroeste 21 Oeste 0 -- -- 78
2018-08-29 20:00:00 25.8 14 Noroeste 26 Noroeste 0 -- -- 68
2018-08-29 19:00:00 26.7 17 Noroeste 25 Oeste 0 -- -- 66
2018-08-29 18:00:00 24.7 26 Oeste 33 Oeste 0 -- -- 80
2018-08-29 17:00:00 25.2 22 Oeste 27 Sudoeste 0 -- -- 77
2018-08-29 16:00:00 25.7 21 Sudoeste 25 Sudoeste 0 -- -- 76
2018-08-29 15:00:00 26.2 18 Sudoeste 21 Sudoeste 0 -- -- 72
2018-08-29 14:00:00 25.9 17 Sudoeste 19 Sudoeste 0 -- -- 72
2018-08-29 13:00:00 24.6 14 Sudoeste 22 Sudoeste 0 -- -- 76
2018-08-29 12:00:00 24.5 13 Sudoeste 21 Sudoeste 0 -- -- 76
2018-08-29 11:00:00 23.1 13 Sudoeste 20 Sudoeste 0 -- -- 80
2018-08-29 10:00:00 22.3 9 Sudoeste 20 Sur 0 -- -- 83
2018-08-29 09:00:00 21.7 8 Sudoeste 17 Sudoeste 0 -- -- 85
2018-08-29 08:00:00 21.7 14 Sudoeste 18 Sudoeste 0 -- -- 89
2018-08-29 07:00:00 21.7 16 Sudoeste 21 Sur 0 -- -- 90
2018-08-29 06:00:00 21.6 15 Sudoeste 20 Sudoeste 0 -- -- 89
2018-08-29 05:00:00 21.7 12 Sudoeste 19 Sudoeste 0 -- -- 90
2018-08-29 04:00:00 21.9 16 Sudoeste 21 Sudoeste 0 -- -- 92
2018-08-29 03:00:00 22.1 17 Sudoeste 21 Sudoeste 0 -- -- 92
2018-08-29 02:00:00 22.3 18 Sudoeste 23 Sudoeste 0 -- -- 92
2018-08-29 01:00:00 22.3 13 Sudoeste 17 Sudoeste 0 -- -- 93
2018-08-29 00:00:00 22.4 11 Sudoeste 14 Sudoeste 0 -- -- 93
2018-08-28 23:00:00 22.6 11 Sudoeste 13 Sudoeste 0 -- -- 92
2018-08-28 22:00:00 22.7 11 Sudoeste 16 Sudoeste 0 -- -- 91
2018-08-28 21:00:00 23.4 6 Sudoeste 20 Oeste 0 -- -- 90
2018-08-28 20:00:00 25 14 Oeste 23 Oeste 0 -- -- 84
2018-08-28 19:00:00 26.6 14 Oeste 26 Oeste 0 -- -- 80
2018-08-28 18:00:00 26.7 19 Oeste 26 Oeste 0 -- -- 80
2018-08-28 17:00:00 26.4 23 Oeste 27 Oeste 0 -- -- 81
2018-08-28 16:00:00 27.1 19 Oeste 24 Oeste 0 -- -- 80
2018-08-28 15:00:00 27.4 15 Oeste 20 Oeste 0 -- -- 79
2018-08-28 14:00:00 27.2 15 Oeste 26 Oeste 0 -- -- 81
2018-08-28 13:00:00 26.7 17 Oeste 24 Oeste 0 -- -- 83
2018-08-28 12:00:00 26.2 19 Oeste 23 Oeste 0 -- -- 85
2018-08-28 11:00:00 25.1 14 Oeste 21 Oeste 0 -- -- 87
2018-08-28 10:00:00 25.1 3 Norte 10 Norte 0 -- -- 87
2018-08-28 09:00:00 22.5 6 Norte 12 Norte 0 -- -- 96
2018-08-28 08:00:00 21.8 6 Norte 10 Nordeste 0 -- -- 96
2018-08-28 07:00:00 21.8 4 Norte 9 Nordeste 0 -- -- 95
2018-08-28 06:00:00 22.1 4 Norte 9 Nordeste 0 -- -- 95
2018-08-28 05:00:00 22.3 6 Este 10 Noroeste 0 -- -- 94
2018-08-28 04:00:00 22.9 6 Noroeste 10 Noroeste 0 -- -- 94
2018-08-28 03:00:00 23.3 7 Sudeste 23 Sudoeste 0 -- -- 94
2018-08-28 02:00:00 23.2 22 Sudoeste 26 Sudoeste 0 -- -- 94
2018-08-28 01:00:00 23.4 24 Sudoeste 33 Sudoeste 0 -- -- 94
2018-08-28 00:00:00 23.5 27 Sudoeste 40 Sudoeste 0 -- -- 94
2018-08-27 23:00:00 25.5 23 Sur 33 Sudeste 0 -- -- 83
2018-08-27 22:00:00 26.8 20 Sudeste 48 Sudeste 0 -- -- 72
2018-08-27 21:00:00 25.6 30 Sur 50 Sudeste 0 -- -- 82
2018-08-27 20:00:00 26.9 32 Sur 42 Sur 0 -- -- 76
2018-08-27 19:00:00 28.7 20 Sur 34 Sudeste 0 -- -- 70
2018-08-27 18:00:00 29.6 15 Sudeste 38 Sudeste 0 -- -- 65
2018-08-27 17:00:00 30.4 23 Sudeste 47 Este 0 -- -- 54
2018-08-27 16:00:00 28.4 29 Sudeste 49 Sudeste 0 -- -- 69
2018-08-27 15:00:00 32.8 30 Sudeste 55 Sudeste 0 -- -- 49
2018-08-27 14:00:00 30.8 36 Sudeste 73 Sudeste 0 -- -- 56
2018-08-27 13:00:00 30.6 45 Este 73 Este 0 -- -- 58
2018-08-27 12:00:00 29.9 31 Este 49 Este 0 -- -- 63
2018-08-27 11:00:00 29.4 11 Nordeste 63 Este 0 -- -- 61
2018-08-27 10:00:00 27.7 24 Nordeste 55 Nordeste 0 -- -- 62
2018-08-27 09:00:00 26.4 15 Norte 31 Nordeste 0 -- -- 66
2018-08-27 08:00:00 25.9 10 Nordeste 45 Este 0 -- -- 71
2018-08-27 07:00:00 25.9 18 Nordeste 38 Nordeste 0 -- -- 73
2018-08-27 06:00:00 25.9 13 Nordeste 29 Nordeste 0 -- -- 71
2018-08-27 05:00:00 25.9 15 Nordeste 39 Este 0 -- -- 69
2018-08-27 04:00:00 26.3 6 Norte 32 Norte 0 -- -- 63
2018-08-27 03:00:00 25.9 18 Norte 31 Norte 0 -- -- 66
2018-08-27 02:00:00 26 16 Norte 32 Norte 0 -- -- 65
2018-08-27 01:00:00 26.5 15 Norte 34 Nordeste 0 -- -- 64
2018-08-27 00:00:00 26.5 28 Nordeste 42 Nordeste 0 -- -- 64
2018-08-26 23:00:00 26.4 21 Nordeste 32 Nordeste 0 -- -- 65
2018-08-26 22:00:00 26.9 13 Norte 26 Nordeste 0 -- -- 62
2018-08-26 21:00:00 28.7 13 Nordeste 35 Este 0 -- -- 53
2018-08-26 20:00:00 32 13 Este 32 Este 0 -- -- 46
2018-08-26 19:00:00 33.3 21 Este 41 Este 0 -- -- 44
2018-08-26 18:00:00 34.3 25 Este 37 Este 0 -- -- 40
2018-08-26 17:00:00 34.8 24 Este 40 Este 0 -- -- 37
2018-08-26 16:00:00 34.9 22 Este 38 Este 0 -- -- 36
2018-08-26 15:00:00 29.7 11 Sur 24 Sudeste 0 -- -- 49
2018-08-26 14:00:00 26.6 11 Oeste 17 Oeste 0 -- -- 73
2018-08-26 13:00:00 25.9 11 Sudoeste 14 Oeste 0 -- -- 79
2018-08-26 12:00:00 24.7 10 Oeste 13 Sudoeste 0 -- -- 87
2018-08-26 11:00:00 24.1 3 Sudoeste 8 Norte 0 -- -- 90
2018-08-26 10:00:00 21.7 3 Este 6 Este 0 -- -- 97
2018-08-26 09:00:00 21.1 2 Norte 14 Sudoeste 0 -- -- 99
2018-08-26 08:00:00 21 10 Sur 20 Sudoeste 0 -- -- 99
2018-08-26 07:00:00 21.3 15 Sudoeste 19 Sudoeste 0 -- -- 99
2018-08-26 06:00:00 21.5 13 Sudoeste 19 Sudoeste 0 -- -- 99
2018-08-26 05:00:00 21.8 13 Sur 15 Sur 0 -- -- 99
2018-08-26 04:00:00 21.7 5 Nordeste 7 Nordeste 0 -- -- 98
2018-08-26 03:00:00 22 0 Calma 4 Sur 0 -- -- 97
2018-08-26 02:00:00 22.4 3 Sur 6 Sudoeste 0 -- -- 97
2018-08-26 01:00:00 22.6 6 Sudoeste 15 Sur 0 -- -- 97
2018-08-26 00:00:00 23 6 Sur 14 Sur 0 -- -- 96
2018-08-25 23:00:00 23.4 8 Sur 11 Sur 0 -- -- 95
2018-08-25 22:00:00 23.9 8 Sur 10 Sur 0 -- -- 92
2018-08-25 21:00:00 24.8 8 Sudoeste 12 Sur 0 -- -- 88
2018-08-25 20:00:00 25.7 13 Sudoeste 17 Sudoeste 0 -- -- 86
2018-08-25 19:00:00 26.4 14 Sur 15 Sur 0 -- -- 82
2018-08-25 18:00:00 27.4 9 Sur 18 Sudoeste 0 -- -- 78
2018-08-25 17:00:00 26.7 16 Sudoeste 20 Oeste 0 -- -- 80
2018-08-25 16:00:00 25.4 19 Oeste 24 Oeste 0 -- -- 85
2018-08-25 15:00:00 24.8 19 Oeste 24 Sudoeste 0 -- -- 85
2018-08-25 14:00:00 24.9 18 Oeste 22 Oeste 0 -- -- 84
2018-08-25 13:00:00 24.6 18 Sudoeste 27 Sudoeste 0 -- -- 86
2018-08-25 12:00:00 24.3 22 Sudoeste 27 Sudoeste 0 -- -- 86
2018-08-25 11:00:00 24.3 17 Sudoeste 22 Sudoeste 0 -- -- 87
2018-08-25 10:00:00 23.3 15 Sudoeste 21 Sudoeste 0 -- -- 90
2018-08-25 09:00:00 22.4 12 Sudoeste 15 Sudoeste 0 -- -- 94
2018-08-25 08:00:00 22.2 9 Sudoeste 12 Sudoeste 0 -- -- 92
2018-08-25 07:00:00 21.3 6 Sudoeste 9 Sudoeste 0 -- -- 87
2018-08-25 06:00:00 20.6 7 Norte 12 Norte 0 -- -- 81
2018-08-25 05:00:00 21.4 7 Norte 10 Norte 0 -- -- 84
2018-08-25 04:00:00 21.3 5 Norte 10 Nordeste 0 -- -- 81
2018-08-25 03:00:00 22.1 7 Norte 11 Norte 0 -- -- 82
2018-08-25 02:00:00 22.7 5 Nordeste 8 Norte 0 -- -- 85
2018-08-25 01:00:00 23.2 5 Norte 8 Norte 0 -- -- 80
2018-08-25 00:00:00 23.7 5 Sur 14 Sur 0 -- -- 87